createdAt,value
2023-02-13T21:39:45.648Z,6.60
2023-02-13T21:40:47.284Z,6.50
2023-02-13T21:41:48.949Z,6.60
2023-02-13T21:42:53.543Z,6.50
2023-02-13T21:43:55.266Z,6.50
2023-02-13T21:44:56.893Z,6.60
2023-02-13T21:46:12.531Z,6.50
2023-02-13T21:47:16.117Z,6.60
2023-02-13T21:48:18.122Z,6.60
2023-02-13T21:49:20.308Z,6.60
2023-02-13T21:50:22.339Z,6.60
2023-02-13T21:51:25.626Z,6.60
2023-02-13T21:52:27.282Z,6.70
2023-02-13T21:53:31.194Z,6.60
2023-02-13T21:54:33.146Z,6.70
2023-02-13T21:55:34.797Z,6.70
2023-02-13T21:56:39.006Z,6.70
2023-02-13T21:57:40.708Z,6.70
2023-02-13T21:58:43.608Z,6.70
2023-02-13T21:59:45.267Z,6.70
2023-02-13T22:00:46.979Z,6.70
2023-02-13T22:01:54.063Z,6.70
2023-02-13T22:02:55.966Z,6.60
2023-02-13T22:04:01.285Z,6.60
2023-02-13T22:05:03.649Z,6.60
2023-02-13T22:06:05.607Z,6.50
2023-02-13T22:07:07.256Z,6.60
2023-02-13T22:08:12.165Z,6.60
2023-02-13T22:09:15.770Z,6.50
2023-02-13T22:10:17.530Z,6.50
2023-02-13T22:11:19.366Z,6.60
2023-02-13T22:12:21.208Z,6.60
2023-02-13T22:13:23.625Z,6.60
2023-02-13T22:14:25.302Z,6.60
2023-02-13T22:15:28.546Z,6.60
2023-02-13T22:16:32.014Z,6.60
2023-02-13T22:17:36.723Z,6.60
2023-02-13T22:18:41.154Z,6.60
2023-02-13T22:19:43.519Z,6.60
2023-02-13T22:20:45.292Z,6.60
2023-02-13T22:21:47.008Z,6.60
2023-02-13T22:22:49.534Z,6.70
2023-02-13T22:23:52.264Z,6.70
2023-02-13T22:24:53.956Z,6.60
2023-02-13T22:25:55.707Z,6.60
2023-02-13T22:26:57.327Z,6.60
2023-02-13T22:27:58.934Z,6.60
2023-02-13T22:29:03.797Z,6.60
2023-02-13T22:30:06.808Z,6.60
2023-02-13T22:31:09.595Z,6.60
2023-02-13T22:32:11.770Z,6.60
2023-02-13T22:33:13.518Z,6.60
2023-02-13T22:34:15.516Z,6.60
2023-02-13T22:35:17.266Z,6.60
2023-02-13T22:36:22.047Z,6.60
2023-02-13T22:37:23.833Z,6.60
2023-02-13T22:38:25.548Z,6.50
2023-02-13T22:39:27.342Z,6.60
2023-02-13T22:40:29.050Z,6.50
2023-02-13T22:41:30.733Z,6.50
2023-02-13T22:42:32.816Z,6.50
2023-02-13T22:43:35.337Z,6.50
2023-02-13T22:44:37.009Z,6.40
2023-02-13T22:45:39.331Z,6.40
2023-02-13T22:46:41.339Z,6.40
2023-02-13T22:47:43.046Z,6.40
2023-02-13T22:48:47.719Z,6.40
2023-02-13T22:49:49.540Z,6.40
2023-02-13T22:50:51.149Z,6.40
2023-02-13T22:51:52.742Z,6.30
2023-02-13T22:52:54.362Z,6.30
2023-02-13T22:53:57.379Z,6.30
2023-02-13T22:54:59.073Z,6.30
2023-02-13T22:56:02.390Z,6.30
2023-02-13T22:57:05.282Z,6.30
2023-02-13T22:58:07.011Z,6.30
2023-02-13T22:59:10.302Z,6.30
2023-02-13T23:00:14.843Z,6.30
2023-02-13T23:01:20.985Z,6.20
2023-02-13T23:02:22.964Z,6.20
2023-02-13T23:03:24.977Z,6.20
2023-02-13T23:04:26.872Z,6.20
2023-02-13T23:05:28.759Z,6.20
2023-02-13T23:06:30.452Z,6.20
2023-02-13T23:07:32.311Z,6.20
2023-02-13T23:08:35.904Z,6.20
2023-02-13T23:09:37.627Z,6.40
2023-02-13T23:10:39.900Z,6.20
2023-02-13T23:12:00.168Z,6.20
2023-02-13T23:13:01.866Z,6.20
2023-02-13T23:14:04.431Z,6.20
2023-02-13T23:15:09.508Z,6.20
2023-02-13T23:16:15.059Z,6.20
2023-02-13T23:17:35.384Z,6.20
2023-02-13T23:18:37.036Z,6.10
2023-02-13T23:19:38.882Z,6.10
2023-02-13T23:20:44.716Z,6.10
2023-02-13T23:21:46.778Z,6.10
2023-02-13T23:22:56.500Z,6.10
2023-02-13T23:23:58.128Z,6.10
2023-02-13T23:25:01.495Z,6.10
2023-02-13T23:26:05.027Z,6.10
2023-02-13T23:27:06.700Z,6.10
2023-02-13T23:28:08.429Z,6.10
2023-02-13T23:29:10.326Z,6.10
2023-02-13T23:30:19.744Z,6.10
2023-02-13T23:31:21.541Z,6.10
2023-02-13T23:32:23.282Z,6.10
2023-02-13T23:33:24.970Z,6.10
2023-02-13T23:34:26.707Z,6.10
2023-02-13T23:35:28.416Z,6.10
2023-02-13T23:36:30.107Z,6.00
2023-02-13T23:37:31.900Z,6.00
2023-02-13T23:38:33.899Z,6.00
2023-02-13T23:39:35.603Z,6.00
2023-02-13T23:40:37.603Z,6.00
2023-02-13T23:41:39.568Z,5.90
2023-02-13T23:42:42.463Z,5.90
2023-02-13T23:43:44.402Z,5.90
2023-02-13T23:44:46.359Z,5.90
2023-02-13T23:45:48.315Z,6.00
2023-02-13T23:46:49.991Z,5.90
2023-02-13T23:49:07.374Z,5.90
2023-02-13T23:50:09.874Z,5.90
2023-02-13T23:51:12.000Z,5.90
2023-02-13T23:52:13.865Z,5.90
2023-02-13T23:53:15.682Z,5.90
2023-02-13T23:54:20.948Z,5.90
2023-02-13T23:55:22.637Z,5.90
2023-02-13T23:56:25.554Z,5.90
2023-02-13T23:57:28.004Z,5.90
2023-02-13T23:58:29.861Z,5.90
2023-02-13T23:59:31.635Z,5.90
